Time;durP1;ratioP1;P1;durP2;ratioP2;P2;SDS_P1;SDS_P2;PMS_P1;PMS_P2;Temp;Humidity;BMP_temperature;BMP_pressure;BME280_temperature;BME280_humidity;BME280_pressure;Samples;Min_cycle;Max_cycle;Signal;HPM_P1;HPM_P2
2023/08/17 00:00:01;;;;;;;6.22;5.63;;;;;;;22.48;100.00;99907.59;5034174;28;20033;-86
2023/08/17 00:02:26;;;;;;;9.88;6.13;;;;;;;22.45;100.00;99918.50;5016039;28;20025;-86
2023/08/17 00:04:52;;;;;;;6.35;5.55;;;;;;;22.44;100.00;99933.59;5034334;28;20042;-86
2023/08/17 00:07:17;;;;;;;6.05;5.45;;;;;;;22.37;100.00;99916.53;5033824;28;20033;-86
2023/08/17 00:09:42;;;;;;;6.22;5.40;;;;;;;22.46;100.00;99931.66;5034001;28;20029;-87
2023/08/17 00:12:08;;;;;;;6.35;5.70;;;;;;;22.44;100.00;99930.09;5016320;28;20090;-87
2023/08/17 00:14:33;;;;;;;5.57;4.88;;;;;;;22.40;100.00;99918.91;5033618;28;20030;-86
2023/08/17 00:16:58;;;;;;;6.35;5.30;;;;;;;22.40;100.00;99927.72;5034111;28;20083;-87
2023/08/17 00:19:24;;;;;;;7.75;5.70;;;;;;;22.35;100.00;99929.97;5033820;28;20412;-86
2023/08/17 00:21:51;;;;;;;7.45;5.60;;;;;;;22.25;100.00;99934.44;5033995;28;20038;-87
2023/08/17 00:24:16;;;;;;;5.70;5.03;;;;;;;22.25;100.00;99946.84;5016136;28;20087;-86
2023/08/17 00:26:41;;;;;;;5.93;5.32;;;;;;;22.16;100.00;99945.84;5033583;28;20029;-87
2023/08/17 00:29:07;;;;;;;5.47;4.97;;;;;;;22.24;100.00;99963.75;5015973;28;20025;-87
2023/08/17 00:31:32;;;;;;;6.00;5.22;;;;;;;22.12;100.00;99936.47;5014847;28;20029;-86
2023/08/17 00:33:57;;;;;;;5.93;5.32;;;;;;;22.28;100.00;99965.97;5033934;28;20541;-86
2023/08/17 00:36:23;;;;;;;7.18;6.05;;;;;;;22.16;100.00;99952.03;5015677;28;20026;-87
2023/08/17 00:38:48;;;;;;;5.93;5.43;;;;;;;22.19;100.00;99952.72;5015922;28;20629;-87
2023/08/17 00:41:13;;;;;;;7.03;5.70;;;;;;;22.08;100.00;99962.47;5015792;28;20417;-86
2023/08/17 00:43:39;;;;;;;7.00;5.35;;;;;;;21.94;100.00;99960.19;5015401;28;20056;-86
2023/08/17 00:46:04;;;;;;;8.55;5.72;;;;;;;21.88;100.00;99958.94;5015566;28;20043;-86
2023/08/17 00:48:31;;;;;;;5.55;5.00;;;;;;;21.89;100.00;99951.81;5015560;28;20029;-86
2023/08/17 00:50:58;;;;;;;5.60;5.10;;;;;;;21.82;100.00;99938.25;5015546;28;20048;-86
2023/08/17 00:53:27;;;;;;;5.80;5.30;;;;;;;21.74;100.00;99931.94;5015207;28;20036;-86
2023/08/17 00:55:53;;;;;;;6.53;5.03;;;;;;;21.72;100.00;99932.09;5015296;28;20028;-86
2023/08/17 00:58:19;;;;;;;4.70;4.30;;;;;;;21.68;100.00;99925.38;5015289;28;20034;-86
2023/08/17 01:00:45;;;;;;;6.47;4.88;;;;;;;21.62;100.00;99912.69;5015205;28;20155;-87
2023/08/17 01:03:10;;;;;;;5.65;4.97;;;;;;;21.64;100.00;99916.84;5033245;28;20580;-87
2023/08/17 01:05:37;;;;;;;4.88;4.45;;;;;;;21.54;100.00;99913.34;5015150;28;20503;-86
2023/08/17 01:08:03;;;;;;;5.28;4.78;;;;;;;21.51;100.00;99913.63;5033074;28;20022;-86
2023/08/17 01:10:47;;;;;;;5.22;4.72;;;;;;;21.50;100.00;99927.84;5032660;28;20022;-86
2023/08/17 01:13:17;;;;;;;5.07;4.68;;;;;;;21.47;100.00;99940.53;5032792;28;20022;-87
2023/08/17 01:15:52;;;;;;;5.35;4.85;;;;;;;21.53;100.00;99950.56;5014922;28;20076;-86
2023/08/17 01:18:24;;;;;;;4.93;4.53;;;;;;;21.63;100.00;99972.66;5032902;28;20376;-86
2023/08/17 01:20:52;;;;;;;3.95;3.65;;;;;;;21.73;100.00;100073.44;5015003;28;20033;-86
2023/08/17 01:23:18;;;;;;;5.00;4.50;;;;;;;21.73;100.00;100084.88;5014939;28;20032;-86
2023/08/17 01:25:43;;;;;;;5.97;5.40;;;;;;;21.78;100.00;100068.56;5014532;28;20025;-86
2023/08/17 01:28:10;;;;;;;5.95;5.30;;;;;;;21.66;100.00;100083.75;5032694;28;20045;-86
2023/08/17 01:30:46;;;;;;;6.68;5.20;;;;;;;21.76;100.00;100103.19;5014739;28;20387;-86
2023/08/17 01:33:16;;;;;;;5.93;5.32;;;;;;;21.77;100.00;100115.47;5014899;28;20036;-86
2023/08/17 01:35:48;;;;;;;5.57;5.03;;;;;;;21.80;100.00;100109.06;5014473;28;20400;-86
2023/08/17 01:38:16;;;;;;;;;;;;;;;21.77;100.00;100125.22;5032774;28;20036;-86
2023/08/17 01:40:43;;;;;;;7.30;5.32;;;;;;;21.73;100.00;100127.28;5014572;28;19966;-87
2023/08/17 01:43:09;;;;;;;7.18;4.95;;;;;;;21.55;100.00;100113.81;5032459;28;20059;-86
2023/08/17 01:45:35;;;;;;;8.82;5.03;;;;;;;21.33;100.00;100067.09;5032120;28;20512;-87
2023/08/17 01:48:00;;;;;;;10.30;5.18;;;;;;;21.22;100.00;100022.09;5014621;28;20057;-87
2023/08/17 01:50:26;;;;;;;5.63;4.10;;;;;;;21.10;100.00;100000.13;5014116;28;20049;-87
2023/08/17 01:52:51;;;;;;;5.38;4.78;;;;;;;20.98;100.00;99982.63;5032021;28;20511;-87
2023/08/17 01:55:16;;;;;;;4.97;3.90;;;;;;;20.90;100.00;99956.00;5032265;28;20029;-86
2023/08/17 01:57:42;;;;;;;5.05;4.20;;;;;;;20.85;100.00;99924.56;5014303;28;20028;-86
2023/08/17 02:00:10;;;;;;;6.82;4.03;;;;;;;20.81;100.00;99903.78;5014498;28;20138;-86
2023/08/17 02:02:36;;;;;;;4.82;4.07;;;;;;;20.63;100.00;99869.97;5014105;28;20030;-86
2023/08/17 02:05:01;;;;;;;5.43;4.22;;;;;;;20.70;100.00;99885.34;5014269;28;20029;-86
2023/08/17 02:07:26;;;;;;;4.68;3.60;;;;;;;20.61;100.00;99874.59;5013982;28;20021;-86
2023/08/17 02:09:52;;;;;;;4.38;3.67;;;;;;;20.58;100.00;99868.72;5014357;28;20025;-86
2023/08/17 02:12:17;;;;;;;3.80;3.50;;;;;;;20.47;100.00;99853.69;5014395;28;20028;-86
2023/08/17 02:14:42;;;;;;;6.47;4.13;;;;;;;20.69;100.00;99889.81;5013943;28;20033;-86
2023/08/17 02:17:08;;;;;;;4.45;3.88;;;;;;;20.66;100.00;99884.78;5031983;28;20036;-86
2023/08/17 02:19:33;;;;;;;4.57;3.80;;;;;;;20.70;100.00;99880.91;5013900;28;20034;-86
2023/08/17 02:21:59;;;;;;;5.85;3.78;;;;;;;20.72;100.00;99881.59;5014024;28;20476;-86
2023/08/17 02:24:25;;;;;;;4.47;3.70;;;;;;;20.59;100.00;99860.63;5014264;28;20381;-86
2023/08/17 02:26:50;;;;;;;3.78;3.38;;;;;;;20.66;100.00;99890.91;5014061;28;20381;-86
2023/08/17 02:29:16;;;;;;;4.13;3.35;;;;;;;20.56;100.00;99882.09;5014136;28;20164;-86
2023/08/17 02:31:41;;;;;;;3.42;2.78;;;;;;;20.55;100.00;99883.03;5013881;28;20112;-86
2023/08/17 02:34:07;;;;;;;4.05;3.40;;;;;;;20.54;100.00;99884.00;5031589;28;20402;-86
2023/08/17 02:36:33;;;;;;;5.72;3.78;;;;;;;20.42;100.00;99861.19;5013390;28;20022;-87
2023/08/17 02:38:58;;;;;;;4.13;3.72;;;;;;;20.35;100.00;99860.00;5014285;28;20045;-86
2023/08/17 02:41:23;;;;;;;3.70;3.40;;;;;;;20.36;100.00;99875.78;5014095;28;20030;-87
2023/08/17 02:43:49;;;;;;;4.88;3.80;;;;;;;20.23;100.00;99884.88;5013202;28;20021;-86
2023/08/17 02:46:15;;;;;;;5.30;3.60;;;;;;;19.98;100.00;99871.03;5031720;28;20105;-86
2023/08/17 02:48:40;;;;;;;8.18;4.93;;;;;;;19.81;100.00;99872.41;5013661;28;20053;-86
2023/08/17 02:51:05;;;;;;;5.78;4.30;;;;;;;19.69;100.00;99873.41;5013516;28;20050;-86
2023/08/17 02:53:31;;;;;;;6.03;4.35;;;;;;;19.53;100.00;99863.19;5014381;28;20172;-86
2023/08/17 02:55:56;;;;;;;6.32;4.40;;;;;;;19.37;100.00;99858.28;5017777;28;20072;-86
2023/08/17 02:58:21;;;;;;;5.03;4.13;;;;;;;19.44;100.00;99882.41;5035454;28;20064;-86
2023/08/17 03:00:47;;;;;;;5.22;4.72;;;;;;;19.31;100.00;99864.06;5035216;28;20036;-86
2023/08/17 03:03:12;;;;;;;5.43;4.65;;;;;;;19.34;100.00;99874.41;5017636;28;20033;-86
2023/08/17 03:05:37;;;;;;;7.68;5.15;;;;;;;19.29;100.00;99870.44;5017365;28;20029;-86
2023/08/17 03:08:03;;;;;;;7.88;4.97;;;;;;;19.36;100.00;99880.38;5017524;28;20033;-86
2023/08/17 03:10:29;;;;;;;7.15;5.03;;;;;;;19.26;100.00;99862.78;5017398;28;20018;-86
2023/08/17 03:12:54;;;;;;;5.70;4.88;;;;;;;19.31;100.00;99869.34;5017318;28;20034;-86
2023/08/17 03:15:20;;;;;;;8.05;4.90;;;;;;;19.36;100.00;99869.81;5034961;28;20103;-86
2023/08/17 03:17:45;;;;;;;5.32;4.80;;;;;;;19.36;100.00;99876.91;5017116;28;20033;-86
2023/08/17 03:20:11;;;;;;;5.40;4.95;;;;;;;19.42;100.00;99869.34;5034981;28;20033;-87
2023/08/17 03:22:36;;;;;;;6.93;5.40;;;;;;;19.42;100.00;99874.63;5034955;28;20044;-86
2023/08/17 03:25:02;;;;;;;6.47;5.78;;;;;;;19.46;100.00;99883.13;5034982;28;20029;-86
2023/08/17 03:27:28;;;;;;;8.40;5.68;;;;;;;19.43;100.00;99883.41;5017162;28;20040;-86
2023/08/17 03:29:54;;;;;;;7.90;5.15;;;;;;;19.44;100.00;99885.06;5034514;28;20102;-86
2023/08/17 03:32:19;;;;;;;6.70;5.45;;;;;;;19.45;100.00;99884.94;5017069;28;20045;-86
2023/08/17 03:34:44;;;;;;;6.18;5.57;;;;;;;19.40;100.00;99883.63;5016606;28;20056;-86
2023/08/17 03:37:10;;;;;;;8.77;5.30;;;;;;;19.41;100.00;99885.31;5034580;28;20439;-86
2023/08/17 03:39:35;;;;;;;6.25;5.63;;;;;;;19.30;100.00;99878.25;5034562;28;20028;-86
2023/08/17 03:42:00;;;;;;;7.93;5.50;;;;;;;19.34;100.00;99889.38;5016917;28;20536;-86
2023/08/17 03:44:26;;;;;;;6.43;5.80;;;;;;;19.37;100.00;99886.50;5016900;28;20448;-86
2023/08/17 03:46:51;;;;;;;7.25;6.55;;;;;;;19.35;100.00;99891.09;5034250;28;20451;-86
2023/08/17 03:49:16;;;;;;;8.48;6.68;;;;;;;19.33;100.00;99882.44;5034282;28;20057;-86
2023/08/17 03:51:42;;;;;;;8.07;6.68;;;;;;;19.22;100.00;99859.53;5016288;28;20021;-86
2023/08/17 03:54:07;;;;;;;7.55;6.55;;;;;;;19.37;100.00;99883.88;5034539;28;20029;-86
2023/08/17 03:56:32;;;;;;;10.07;7.95;;;;;;;19.42;100.00;99886.97;5034116;28;20087;-86
2023/08/17 03:58:58;;;;;;;8.85;7.95;;;;;;;19.42;100.00;99890.47;5016629;28;20065;-86
2023/08/17 04:01:23;;;;;;;9.00;8.10;;;;;;;19.49;100.00;99900.53;5034295;28;20029;-85
2023/08/17 04:03:54;;;;;;;9.77;8.88;;;;;;;19.38;100.00;99886.41;5016785;28;20021;-93
2023/08/17 04:54:08;;;;;;;8.10;6.55;;;;;;;19.97;100.00;99940.72;5008826;28;20470;-95
2023/08/17 05:13:32;;;;;;;5.72;4.97;;;;;;;20.61;100.00;99977.78;4991314;28;20512;-93
2023/08/17 05:15:58;;;;;;;6.78;6.00;;;;;;;20.84;100.00;99991.75;4974306;28;20560;-88
2023/08/17 05:18:23;;;;;;;7.30;5.40;;;;;;;21.00;100.00;99988.66;4951887;29;20040;-90
2023/08/17 05:20:48;;;;;;;6.95;5.90;;;;;;;21.11;100.00;99985.94;4951987;29;20122;-89
2023/08/17 05:23:14;;;;;;;7.03;5.50;;;;;;;21.24;100.00;99991.03;4952154;29;20438;-88
2023/08/17 05:25:39;;;;;;;5.28;4.78;;;;;;;21.27;100.00;99977.50;4951789;29;20094;-88
2023/08/17 05:28:05;;;;;;;6.63;5.65;;;;;;;21.40;100.00;99982.59;4955178;28;20035;-89
2023/08/17 05:30:30;;;;;;;5.15;4.38;;;;;;;21.54;100.00;99992.88;4955195;28;20046;-89
2023/08/17 05:32:56;;;;;;;7.30;4.63;;;;;;;21.65;100.00;99989.25;4954990;28;20522;-88
2023/08/17 05:35:21;;;;;;;6.97;5.13;;;;;;;21.76;100.00;99991.81;4954971;28;20064;-89
2023/08/17 05:37:46;;;;;;;5.22;4.70;;;;;;;21.83;100.00;100002.75;4954816;28;20042;-88
2023/08/17 05:40:12;;;;;;;5.45;4.80;;;;;;;21.88;100.00;100006.66;4955052;28;20507;-88
2023/08/17 05:42:37;;;;;;;6.70;5.53;;;;;;;21.95;100.00;99998.97;4955113;28;20047;-88
2023/08/17 05:45:03;;;;;;;5.50;4.70;;;;;;;22.06;100.00;99998.03;4971026;28;20202;-89
2023/08/17 05:47:28;;;;;;;5.35;4.63;;;;;;;22.28;100.00;99983.72;4971387;28;20046;-88
2023/08/17 05:49:53;;;;;;;6.18;4.95;;;;;;;22.60;100.00;99991.44;4968102;28;20046;-88
2023/08/17 05:52:19;;;;;;;6.35;4.75;;;;;;;23.00;100.00;100004.53;4990296;28;20142;-88
2023/08/17 05:54:44;;;;;;;6.18;4.35;;;;;;;23.16;100.00;99998.63;4995478;28;20136;-88
2023/08/17 05:57:10;;;;;;;4.40;4.00;;;;;;;23.54;100.00;100002.16;5005086;28;20065;-88
2023/08/17 05:59:35;;;;;;;3.80;3.50;;;;;;;23.90;100.00;99993.34;5011369;28;20029;-88
2023/08/17 06:02:01;;;;;;;5.15;3.90;;;;;;;24.22;100.00;99981.34;5010951;28;20429;-88
2023/08/17 06:04:26;;;;;;;5.38;3.85;;;;;;;24.55;100.00;99987.03;5011195;28;20103;-88
2023/08/17 06:06:51;;;;;;;4.72;4.10;;;;;;;24.70;100.00;100004.16;5010707;28;20033;-88
2023/08/17 06:09:17;;;;;;;4.68;3.70;;;;;;;24.76;100.00;100016.00;5010896;28;20033;-88
2023/08/17 06:11:42;;;;;;;4.97;4.18;;;;;;;24.72;100.00;100009.31;5012160;28;20036;-88
2023/08/17 06:14:08;;;;;;;5.20;4.43;;;;;;;24.73;100.00;100024.28;5011015;28;20030;-89
2023/08/17 06:16:33;;;;;;;4.53;3.75;;;;;;;24.63;100.00;100013.72;5010912;28;20093;-89
2023/08/17 06:18:59;;;;;;;4.75;3.63;;;;;;;24.48;100.00;100018.78;5010744;28;20091;-89
2023/08/17 06:21:25;;;;;;;4.63;3.67;;;;;;;24.22;100.00;100013.28;5010844;28;20030;-89
2023/08/17 06:23:50;;;;;;;6.63;3.50;;;;;;;24.08;100.00;100017.31;5010492;28;20099;-89
2023/08/17 06:26:16;;;;;;;3.83;3.40;;;;;;;23.86;100.00;100002.59;5010996;28;20022;-89
2023/08/17 06:28:41;;;;;;;4.25;3.58;;;;;;;23.79;100.00;100016.63;5011698;28;20088;-88
2023/08/17 06:31:06;;;;;;;5.40;4.00;;;;;;;23.72;100.00;100011.06;5014972;28;20030;-89
2023/08/17 06:33:32;;;;;;;4.28;3.88;;;;;;;23.44;100.00;99999.53;5016174;28;20030;-89
2023/08/17 06:35:57;;;;;;;4.20;3.70;;;;;;;23.40;100.00;100014.09;5014468;28;20065;-89
2023/08/17 06:38:22;;;;;;;4.20;3.90;;;;;;;23.36;100.00;100021.53;5014624;28;20034;-89
2023/08/17 06:40:48;;;;;;;3.72;3.42;;;;;;;23.35;100.00;100008.38;5015936;28;20026;-89
2023/08/17 06:43:14;;;;;;;5.63;4.10;;;;;;;23.41;100.00;100010.47;5014784;28;20557;-89
2023/08/17 06:45:39;;;;;;;4.13;3.60;;;;;;;23.53;100.00;100024.41;5014686;28;20037;-89
2023/08/17 06:48:05;;;;;;;4.40;4.00;;;;;;;23.45;100.00;99992.41;5014359;28;20025;-89
2023/08/17 06:50:31;;;;;;;4.55;3.35;;;;;;;23.69;100.00;100011.38;5014470;28;20033;-89
2023/08/17 06:52:56;;;;;;;4.30;3.97;;;;;;;23.80;100.00;100012.97;5014100;28;20072;-89
2023/08/17 06:55:21;;;;;;;4.00;3.60;;;;;;;23.96;100.00;100013.19;5014386;28;20050;-89
2023/08/17 06:57:49;;;;;;;5.05;3.88;;;;;;;24.03;100.00;100003.63;5014389;28;20026;-89
2023/08/17 07:00:15;;;;;;;5.70;4.28;;;;;;;24.07;100.00;100009.50;5014508;28;20133;-88
2023/08/17 07:02:40;;;;;;;4.93;4.10;;;;;;;24.15;100.00;100023.72;5014303;28;20117;-89
2023/08/17 07:05:06;;;;;;;4.60;4.00;;;;;;;24.07;100.00;100022.78;5014030;28;20484;-89
2023/08/17 07:07:31;;;;;;;5.07;3.90;;;;;;;24.08;100.00;100019.97;5014020;28;20033;-89
2023/08/17 07:09:57;;;;;;;4.13;3.72;;;;;;;24.16;100.00;100027.22;5013794;28;20038;-88
2023/08/17 07:12:24;;;;;;;5.32;3.92;;;;;;;24.21;100.00;100034.75;5014179;28;20021;-89
2023/08/17 07:14:49;;;;;;;5.05;4.22;;;;;;;24.04;100.00;100026.56;5013518;28;20034;-89
2023/08/17 07:17:15;;;;;;;4.88;3.60;;;;;;;24.09;100.00;100036.78;5013784;28;20377;-89
2023/08/17 07:19:40;;;;;;;6.07;4.55;;;;;;;24.03;100.00;100027.56;5013724;28;20037;-89
2023/08/17 07:22:06;;;;;;;4.78;3.92;;;;;;;24.04;100.00;100015.94;5013469;28;20030;-89
2023/08/17 07:24:31;;;;;;;4.78;3.58;;;;;;;24.10;100.00;100019.81;5030316;28;20057;-89
2023/08/17 07:26:57;;;;;;;6.07;4.10;;;;;;;24.15;100.00;100012.25;5013470;28;20389;-88
2023/08/17 07:29:23;;;;;;;4.18;3.80;;;;;;;24.31;100.00;100008.88;5013877;28;20038;-89
2023/08/17 07:31:48;;;;;;;5.60;4.45;;;;;;;24.64;100.00;100010.91;5013589;28;20022;-88
2023/08/17 07:34:13;;;;;;;7.30;3.85;;;;;;;26.25;97.81;100006.81;5013657;28;20037;-88
2023/08/17 07:36:39;;;;;;;4.45;3.67;;;;;;;28.76;89.20;100010.84;5013499;28;20132;-88
2023/08/17 07:39:04;;;;;;;4.25;3.33;;;;;;;31.00;78.64;100008.56;5013448;28;20045;-88
2023/08/17 07:41:30;;;;;;;3.35;3.05;;;;;;;32.02;72.09;100016.00;5013559;28;20049;-88
2023/08/17 07:43:55;;;;;;;4.50;3.47;;;;;;;32.07;72.79;100008.16;5013474;28;20082;-89
2023/08/17 07:46:21;;;;;;;3.63;3.33;;;;;;;31.68;74.50;100006.91;5013540;28;20499;-90
2023/08/17 07:48:46;;;;;;;3.67;3.17;;;;;;;30.91;72.35;100018.63;5013212;28;20041;-90
2023/08/17 07:51:12;;;;;;;3.60;3.30;;;;;;;30.04;75.23;100019.59;5013200;28;20028;-89
2023/08/17 07:53:39;;;;;;;5.70;3.85;;;;;;;29.45;78.19;100013.38;5013540;28;20057;-90
2023/08/17 07:56:04;;;;;;;6.32;3.78;;;;;;;29.46;75.67;100018.59;5012955;28;20133;-89
2023/08/17 07:58:30;;;;;;;4.65;3.25;;;;;;;29.12;76.40;100012.88;5013316;28;20128;-90
2023/08/17 08:00:55;;;;;;;8.05;4.13;;;;;;;28.15;78.94;100015.25;5029486;28;20120;-89
2023/08/17 08:03:20;;;;;;;3.65;3.08;;;;;;;27.63;80.64;100010.47;5012710;28;20026;-89
2023/08/17 08:05:46;;;;;;;3.90;3.38;;;;;;;27.25;82.79;100011.06;5011784;28;20034;-89
2023/08/17 08:08:11;;;;;;;4.00;3.60;;;;;;;26.94;85.24;100015.44;5011781;28;20045;-90
2023/08/17 08:10:36;;;;;;;3.95;3.47;;;;;;;26.64;87.33;100001.75;5011698;28;20030;-89
2023/08/17 08:13:02;;;;;;;4.68;3.75;;;;;;;26.67;86.62;100009.41;5013140;28;20033;-89
2023/08/17 08:15:28;;;;;;;4.57;3.17;;;;;;;27.32;86.52;100017.41;5012961;28;20022;-89
2023/08/17 08:17:53;;;;;;;3.67;3.38;;;;;;;28.17;84.06;100015.94;5011556;28;20087;-89
2023/08/17 08:20:18;;;;;;;5.38;3.85;;;;;;;28.56;83.09;100018.53;5011494;28;20185;-89
2023/08/17 08:22:44;;;;;;;4.63;3.60;;;;;;;28.42;80.38;100024.69;5012271;28;20076;-89
2023/08/17 08:25:10;;;;;;;3.75;3.45;;;;;;;28.37;80.70;100025.22;5012579;28;20037;-89
2023/08/17 08:27:35;;;;;;;5.63;3.97;;;;;;;28.24;80.21;100025.78;5029307;28;20025;-89
2023/08/17 08:30:00;;;;;;;4.10;3.80;;;;;;;27.82;81.64;100016.28;5012523;28;20026;-90
2023/08/17 08:32:26;;;;;;;5.43;3.92;;;;;;;27.48;83.80;100007.69;5014009;28;20025;-90
2023/08/17 08:34:51;;;;;;;4.95;4.20;;;;;;;27.20;84.01;100012.59;5012326;28;20460;-89
2023/08/17 08:37:16;;;;;;;4.25;3.85;;;;;;;27.06;85.18;100012.25;5029246;28;20412;-89
2023/08/17 08:39:53;;;;;;;3.80;3.50;;;;;;;27.20;86.80;100004.56;5012704;28;20033;-89
2023/08/17 08:42:19;;;;;;;3.72;3.42;;;;;;;27.46;86.72;100005.16;5050774;28;20040;-90
2023/08/17 08:44:45;;;;;;;4.43;4.03;;;;;;;27.68;88.54;100008.09;5034094;28;20607;-90
2023/08/17 08:47:12;;;;;;;4.68;4.28;;;;;;;27.83;88.89;100009.06;5033901;28;20041;-90
2023/08/17 08:49:52;;;;;;;4.47;4.07;;;;;;;27.94;88.56;100008.69;5034074;28;20036;-90
2023/08/17 08:52:23;;;;;;;4.68;4.28;;;;;;;27.99;86.36;100005.50;5033216;28;20040;-89
2023/08/17 08:54:51;;;;;;;4.63;4.22;;;;;;;27.88;83.85;100005.88;5033633;28;20605;-89
2023/08/17 08:57:17;;;;;;;5.07;4.10;;;;;;;27.63;83.40;100002.44;5033985;28;20033;-90
2023/08/17 08:59:45;;;;;;;4.55;4.10;;;;;;;27.58;84.05;100006.47;5033930;28;20114;-89
2023/08/17 09:02:15;;;;;;;4.03;3.72;;;;;;;27.48;83.44;100008.53;5033668;28;20327;-90
2023/08/17 09:04:45;;;;;;;3.83;3.53;;;;;;;27.35;84.63;100003.69;5033874;28;20488;-90
2023/08/17 09:07:12;;;;;;;4.40;4.00;;;;;;;27.33;85.60;100008.38;5033511;28;20045;-89
2023/08/17 09:09:38;;;;;;;5.85;4.13;;;;;;;27.22;86.00;99965.09;5033775;28;20037;-90
2023/08/17 09:12:06;;;;;;;4.30;4.00;;;;;;;27.52;88.12;99995.63;5033449;28;20036;-89
2023/08/17 09:14:32;;;;;;;5.05;4.28;;;;;;;27.67;89.35;99995.72;5011684;28;20029;-89
2023/08/17 09:16:58;;;;;;;4.45;4.03;;;;;;;27.81;90.29;99995.88;5011738;28;20025;-90
2023/08/17 09:19:25;;;;;;;4.55;4.18;;;;;;;27.76;86.46;99997.38;5011860;28;20034;-89
2023/08/17 09:21:50;;;;;;;4.43;4.07;;;;;;;27.73;86.13;100000.44;5011622;28;20022;-90
2023/08/17 09:24:16;;;;;;;4.97;4.15;;;;;;;27.55;87.06;99992.59;5011687;28;20560;-89
2023/08/17 09:26:41;;;;;;;4.78;4.38;;;;;;;27.59;89.03;99997.41;5011702;28;20022;-89
2023/08/17 09:29:20;;;;;;;4.15;3.85;;;;;;;27.60;87.84;100007.13;5011432;28;20469;-89
2023/08/17 09:31:46;;;;;;;7.18;4.75;;;;;;;27.66;89.44;100010.97;5011782;28;20113;-89
2023/08/17 09:34:14;;;;;;;4.60;4.20;;;;;;;27.61;91.30;99987.41;5027896;28;20030;-90
2023/08/17 09:36:40;;;;;;;5.20;4.70;;;;;;;27.87;90.80;99996.19;5027898;28;20032;-89
2023/08/17 09:39:05;;;;;;;5.18;4.78;;;;;;;27.99;89.17;99984.06;5011252;28;20124;-90
2023/08/17 09:41:38;;;;;;;4.88;4.40;;;;;;;28.08;88.13;99991.88;5027995;28;20038;-89
2023/08/17 09:44:04;;;;;;;6.13;4.63;;;;;;;28.13;88.06;99996.69;5011332;28;20057;-89
2023/08/17 09:46:29;;;;;;;4.55;4.13;;;;;;;28.01;86.23;99984.72;5027759;28;20029;-89
2023/08/17 09:48:55;;;;;;;5.85;4.25;;;;;;;28.05;88.02;99991.38;5011105;28;20036;-90
2023/08/17 09:51:20;;;;;;;5.20;4.70;;;;;;;27.97;85.39;99989.59;5027639;28;20092;-90
2023/08/17 09:53:52;;;;;;;4.78;4.38;;;;;;;27.54;85.51;99974.88;5027646;28;20444;-90
2023/08/17 09:56:21;;;;;;;4.57;4.20;;;;;;;27.56;87.42;99986.25;5045958;28;20046;-89
2023/08/17 09:58:47;;;;;;;5.50;4.57;;;;;;;27.50;89.04;99985.09;5047420;28;20022;-89
2023/08/17 10:01:13;;;;;;;4.82;4.32;;;;;;;27.46;88.71;99975.72;5014253;28;20098;-90
2023/08/17 10:03:43;;;;;;;6.18;4.47;;;;;;;27.49;87.88;99988.78;5014371;28;20029;-89
2023/08/17 10:06:12;;;;;;;4.63;3.95;;;;;;;27.39;88.43;99977.44;5047159;28;20075;-89
2023/08/17 10:08:43;;;;;;;4.35;3.95;;;;;;;27.32;87.65;99957.75;5014514;28;20044;-89
2023/08/17 10:11:10;;;;;;;5.00;4.55;;;;;;;27.51;87.39;99976.03;5047289;28;20018;-89
2023/08/17 10:13:42;;;;;;;4.43;4.03;;;;;;;27.55;88.57;99976.53;5014457;28;20037;-90
2023/08/17 10:16:28;;;;;;;4.43;4.10;;;;;;;27.55;87.52;99993.41;5047028;28;20116;-89
2023/08/17 10:19:26;;;;;;;4.93;4.47;;;;;;;27.48;87.33;99983.59;5014255;28;20472;-89
2023/08/17 10:22:01;;;;;;;4.60;4.18;;;;;;;27.50;88.07;99976.22;4970668;28;20031;-90
2023/08/17 10:24:28;;;;;;;5.55;4.70;;;;;;;27.56;88.21;99986.25;4954655;28;20133;-90
2023/08/17 10:26:54;;;;;;;5.45;4.95;;;;;;;27.56;88.01;99973.72;4954533;28;20043;-89
2023/08/17 10:29:22;;;;;;;4.60;4.22;;;;;;;27.65;88.48;99969.16;4954218;28;20488;-90
2023/08/17 10:31:48;;;;;;;4.35;3.95;;;;;;;27.71;89.21;99971.13;4954361;28;20035;-89
2023/08/17 10:34:15;;;;;;;5.28;4.80;;;;;;;27.75;89.24;99967.13;4954188;28;20094;-89
2023/08/17 10:36:41;;;;;;;4.68;4.32;;;;;;;27.79;90.75;99963.09;4954424;28;20026;-90
2023/08/17 10:39:23;;;;;;;5.18;4.68;;;;;;;27.80;90.59;99963.91;4954158;28;20461;-89
2023/08/17 10:41:50;;;;;;;4.63;4.32;;;;;;;27.82;91.10;99968.09;4970430;28;20120;-89
2023/08/17 10:44:18;;;;;;;5.00;4.50;;;;;;;27.53;87.17;99949.97;4954091;28;20043;-90
2023/08/17 10:46:45;;;;;;;4.93;4.43;;;;;;;27.41;87.46;99951.34;4970309;28;20085;-89
2023/08/17 10:49:26;;;;;;;6.15;5.55;;;;;;;27.29;87.74;99950.88;4970266;28;20490;-89
2023/08/17 10:52:06;;;;;;;5.47;4.95;;;;;;;27.30;89.52;99954.38;4970367;28;20558;-90
2023/08/17 10:54:38;;;;;;;4.80;4.40;;;;;;;27.32;88.55;99955.91;4953981;28;20395;-90
2023/08/17 10:57:27;;;;;;;5.05;4.60;;;;;;;27.34;88.96;99961.06;4954072;28;20027;-89
2023/08/17 11:00:27;;;;;;;4.25;3.78;;;;;;;27.28;87.68;99953.75;5013806;28;20017;-91
2023/08/17 11:03:19;;;;;;;5.57;4.53;;;;;;;27.32;89.55;99953.22;5013659;28;20480;-90
2023/08/17 11:05:53;;;;;;;5.55;4.90;;;;;;;27.29;86.08;99950.88;5012184;28;20102;-90
2023/08/17 11:08:53;;;;;;;5.40;4.30;;;;;;;27.21;85.53;99942.88;5046553;28;20180;-89
2023/08/17 11:11:20;;;;;;;4.55;4.25;;;;;;;27.20;83.78;99940.41;4934670;29;20047;-90
2023/08/17 11:13:47;;;;;;;4.38;4.07;;;;;;;27.22;84.46;99941.03;4934887;28;20104;-90
2023/08/17 11:16:16;;;;;;;5.00;4.55;;;;;;;27.24;84.96;99944.38;4937740;29;20038;-90
2023/08/17 11:18:44;;;;;;;4.40;4.10;;;;;;;27.29;86.23;99936.69;4938494;29;20027;-90
2023/08/17 11:21:10;;;;;;;4.90;4.57;;;;;;;27.34;86.15;99937.00;4938218;29;20316;-89
2023/08/17 11:23:36;;;;;;;5.38;4.88;;;;;;;27.36;85.82;99945.69;4954270;29;20034;-89
2023/08/17 11:26:02;;;;;;;5.30;4.80;;;;;;;27.39;86.03;99948.03;4938045;29;20031;-91
2023/08/17 11:28:38;;;;;;;4.70;4.30;;;;;;;27.33;84.80;99940.69;4938148;29;20527;-89
2023/08/17 11:31:06;;;;;;;5.45;4.95;;;;;;;27.40;87.05;99944.34;4938051;29;20042;-90
2023/08/17 11:33:33;;;;;;;5.07;4.68;;;;;;;27.47;86.46;99941.78;4953680;29;20047;-89
2023/08/17 11:36:00;;;;;;;4.38;4.07;;;;;;;27.49;85.95;99945.97;4936956;29;20423;-89
2023/08/17 11:38:26;;;;;;;4.93;4.45;;;;;;;27.55;86.04;99947.09;4937379;29;20095;-90
2023/08/17 11:40:52;;;;;;;5.03;4.63;;;;;;;27.55;86.10;99949.78;4937615;29;20051;-89
2023/08/17 11:43:20;;;;;;;4.32;4.03;;;;;;;27.46;83.21;99940.13;4937672;29;20027;-90
2023/08/17 11:45:46;;;;;;;5.10;4.70;;;;;;;27.46;82.50;99948.97;4941728;28;20039;-89
2023/08/17 11:48:11;;;;;;;5.07;4.68;;;;;;;27.43;82.72;99945.81;5016578;28;20097;-89
2023/08/17 11:50:38;;;;;;;4.60;4.30;;;;;;;27.48;83.45;99952.34;5016676;28;20397;-89
2023/08/17 11:53:04;;;;;;;5.30;4.90;;;;;;;27.52;83.87;99948.31;5016459;28;20064;-90
2023/08/17 11:55:29;;;;;;;5.32;4.88;;;;;;;27.57;84.61;99934.41;5013267;28;20081;-90
2023/08/17 11:57:55;;;;;;;5.35;4.53;;;;;;;27.66;86.16;99940.56;5012130;28;20026;-90
2023/08/17 12:00:21;;;;;;;5.00;4.50;;;;;;;27.75;85.38;99939.53;5012343;28;20048;-90
2023/08/17 12:02:51;;;;;;;5.50;5.00;;;;;;;27.74;86.00;99933.34;5012303;28;20040;-90
2023/08/17 12:05:24;;;;;;;7.60;4.95;;;;;;;27.76;83.56;99941.19;5011525;28;20037;-91
2023/08/17 12:07:52;;;;;;;4.22;3.92;;;;;;;27.75;84.92;99931.50;5014618;28;20080;-90
2023/08/17 12:10:19;;;;;;;5.60;5.10;;;;;;;27.72;84.30;99932.63;5013151;28;20148;-90
2023/08/17 12:12:47;;;;;;;5.28;4.78;;;;;;;27.69;83.81;99924.97;5012062;28;20026;-90
2023/08/17 12:15:13;;;;;;;4.95;4.55;;;;;;;27.71;83.78;99927.47;5011697;28;20066;-90
2023/08/17 12:17:49;;;;;;;5.15;4.75;;;;;;;27.61;82.47;99919.66;5014355;28;20061;-91
2023/08/17 12:20:19;;;;;;;5.25;4.85;;;;;;;27.68;83.16;99930.50;5029403;28;20492;-90
2023/08/17 12:22:45;;;;;;;5.90;5.00;;;;;;;27.66;83.63;99929.84;5012985;28;20097;-90
2023/08/17 12:25:10;;;;;;;5.65;5.15;;;;;;;27.60;83.32;99923.34;5012740;28;20428;-90
2023/08/17 12:27:36;;;;;;;5.22;4.80;;;;;;;27.68;82.92;99925.13;5011670;28;20033;-90
2023/08/17 12:30:02;;;;;;;5.30;4.80;;;;;;;27.70;83.52;99923.97;5012520;28;20033;-90